Accueil
METAR-TAF:

METAR-TAF

Aéroports :

Aéroport de Carcassonne Salvaza

Carcassonne, France

latitude: 43-13N, longitude: 002-19E, altitude: 130 m

Observation

Le bulletin a été fait il y a 13 minutes, à 06:00 UTC
Vent 7 kt de est, variant entre est et sud-est
Température 17°C
Humidité 88%
Pression 1017 hPa
Visibilité 10 km ou plus
Ciel couvert à une hauteur de 1100 ft

METAR: LFMK 240600Z AUTO 10007KT 080V140 9999 OVC011 17/15 Q1017 TEMPO 2000 BR BECMG NSC

Heure: 08:13 (06:13 UTC)

Prévision

Le bulletin a été fait il y a 4 heures et 13 minutes, à 02:00 UTC
Prévision valable du 24 à 03 UTC au 25 à 03 UTC
Vent 10 kt de est
Visibilité 10 km ou plus
pas de nuages en-dessous de 1500 mètres et pas de cumulonimbus.
Temporairement
du 24 à 03 UTC au 24 à 07 UTC
Visibilité: 2000 m
Nuages fragmentés à une hauteur de 1000 ft
brume

TAF: LFMK 240200Z 2403/2503 09010KT CAVOK TEMPO 2403/2407 2000 BR BKN010

Observations et prévisions météorologiques de plus de 4000 aéroports (messages METAR et TAF).

Les stations disponibles sont représentées par des disques jaunes et rouges sur la carte.

Passer la souris dessus pour voir le nom de la station.

Cliquer dessus pour voir les observations et prévisions météorologiques.

Pour changer de carte: cliquez sur les boutons verts avec une croix noire pour zoomer, sur le bouton vert avec un tiret pour effectuer un zoom arrière, ou sur les flèches vertes pour les cartes adjacentes.


METAR-TAF: